sensor_id;sensor_type;location;lat;lon;timestamp;pressure;altitude;pressure_sealevel;temperature;humidity
61035;BME280;46916;40.564;-7.958;2022-07-01T00:00:02;97525.47;;;17.95;56.99
61035;BME280;46916;40.564;-7.958;2022-07-01T00:02:13;97523.81;;;17.94;57.26
61035;BME280;46916;40.564;-7.958;2022-07-01T00:04:15;97519.69;;;17.92;57.28
61035;BME280;46916;40.564;-7.958;2022-07-01T00:06:19;97514.56;;;17.90;57.00
61035;BME280;46916;40.564;-7.958;2022-07-01T00:08:20;97509.47;;;17.89;57.33
61035;BME280;46916;40.564;-7.958;2022-07-01T00:10:21;97507.97;;;17.86;57.18
61035;BME280;46916;40.564;-7.958;2022-07-01T00:12:21;97513.47;;;17.85;57.30
61035;BME280;46916;40.564;-7.958;2022-07-01T00:14:22;97504.84;;;17.82;57.33
61035;BME280;46916;40.564;-7.958;2022-07-01T00:16:23;97504.03;;;17.82;57.27
61035;BME280;46916;40.564;-7.958;2022-07-01T00:18:23;97502.03;;;17.84;57.42
61035;BME280;46916;40.564;-7.958;2022-07-01T00:20:24;97497.72;;;17.83;57.59
61035;BME280;46916;40.564;-7.958;2022-07-01T00:22:25;97493.44;;;17.82;57.48
61035;BME280;46916;40.564;-7.958;2022-07-01T00:24:28;97496.06;;;17.82;57.44
61035;BME280;46916;40.564;-7.958;2022-07-01T00:26:28;97486.50;;;17.81;57.63
61035;BME280;46916;40.564;-7.958;2022-07-01T00:28:30;97488.13;;;17.82;57.70
61035;BME280;46916;40.564;-7.958;2022-07-01T00:30:30;97488.66;;;17.77;57.79
61035;BME280;46916;40.564;-7.958;2022-07-01T00:32:31;97492.47;;;17.75;58.02
61035;BME280;46916;40.564;-7.958;2022-07-01T00:34:32;97489.81;;;17.75;57.91
61035;BME280;46916;40.564;-7.958;2022-07-01T00:36:33;97482.19;;;17.72;57.91
61035;BME280;46916;40.564;-7.958;2022-07-01T00:38:33;97476.91;;;17.72;57.88
61035;BME280;46916;40.564;-7.958;2022-07-01T00:40:34;97477.72;;;17.72;57.83
61035;BME280;46916;40.564;-7.958;2022-07-01T00:42:38;97472.78;;;17.69;57.87
61035;BME280;46916;40.564;-7.958;2022-07-01T00:44:39;97476.44;;;17.68;57.67
61035;BME280;46916;40.564;-7.958;2022-07-01T00:46:40;97473.28;;;17.65;57.77
61035;BME280;46916;40.564;-7.958;2022-07-01T00:48:40;97477.91;;;17.63;57.60
61035;BME280;46916;40.564;-7.958;2022-07-01T00:50:41;97479.13;;;17.60;57.61
61035;BME280;46916;40.564;-7.958;2022-07-01T00:52:43;97482.09;;;17.57;57.53
61035;BME280;46916;40.564;-7.958;2022-07-01T00:54:44;97481.78;;;17.52;57.94
61035;BME280;46916;40.564;-7.958;2022-07-01T00:56:46;97479.31;;;17.50;58.09
61035;BME280;46916;40.564;-7.958;2022-07-01T00:58:47;97488.25;;;17.49;58.21
61035;BME280;46916;40.564;-7.958;2022-07-01T01:00:48;97480.66;;;17.46;57.95
61035;BME280;46916;40.564;-7.958;2022-07-01T01:02:49;97480.00;;;17.44;58.14
61035;BME280;46916;40.564;-7.958;2022-07-01T01:04:49;97485.31;;;17.44;58.20
61035;BME280;46916;40.564;-7.958;2022-07-01T01:06:50;97475.72;;;17.43;58.03
61035;BME280;46916;40.564;-7.958;2022-07-01T01:08:51;97477.69;;;17.41;58.42
61035;BME280;46916;40.564;-7.958;2022-07-01T01:10:53;97479.72;;;17.31;58.77
61035;BME280;46916;40.564;-7.958;2022-07-01T01:12:55;97472.75;;;17.30;58.81
61035;BME280;46916;40.564;-7.958;2022-07-01T01:14:57;97472.44;;;17.33;58.77
61035;BME280;46916;40.564;-7.958;2022-07-01T01:16:57;97469.59;;;17.34;58.66
61035;BME280;46916;40.564;-7.958;2022-07-01T01:18:58;97475.38;;;17.38;58.76
61035;BME280;46916;40.564;-7.958;2022-07-01T01:20:59;97477.88;;;17.40;58.65
61035;BME280;46916;40.564;-7.958;2022-07-01T01:22:59;97473.75;;;17.37;58.57
61035;BME280;46916;40.564;-7.958;2022-07-01T01:25:00;97476.56;;;17.36;58.94
61035;BME280;46916;40.564;-7.958;2022-07-01T01:27:03;97475.25;;;17.31;58.66
61035;BME280;46916;40.564;-7.958;2022-07-01T01:29:04;97473.75;;;17.29;58.84
61035;BME280;46916;40.564;-7.958;2022-07-01T01:31:04;97466.97;;;17.26;58.97
61035;BME280;46916;40.564;-7.958;2022-07-01T01:33:05;97466.16;;;17.26;59.06
61035;BME280;46916;40.564;-7.958;2022-07-01T01:35:09;97466.34;;;17.24;59.15
61035;BME280;46916;40.564;-7.958;2022-07-01T01:37:10;97466.34;;;17.24;59.15
61035;BME280;46916;40.564;-7.958;2022-07-01T01:39:10;97473.47;;;17.24;59.18
61035;BME280;46916;40.564;-7.958;2022-07-01T01:41:11;97470.63;;;17.25;59.18
61035;BME280;46916;40.564;-7.958;2022-07-01T01:43:12;97465.34;;;17.25;59.25
61035;BME280;46916;40.564;-7.958;2022-07-01T01:45:13;97469.00;;;17.24;59.08
61035;BME280;46916;40.564;-7.958;2022-07-01T01:47:14;97468.16;;;17.24;59.13
61035;BME280;46916;40.564;-7.958;2022-07-01T01:49:15;97468.50;;;17.21;59.25
61035;BME280;46916;40.564;-7.958;2022-07-01T01:51:15;97463.22;;;17.21;59.04
61035;BME280;46916;40.564;-7.958;2022-07-01T01:53:19;97467.50;;;17.22;59.17
61035;BME280;46916;40.564;-7.958;2022-07-01T01:55:19;97464.84;;;17.22;59.04
61035;BME280;46916;40.564;-7.958;2022-07-01T01:57:20;97475.09;;;17.25;59.06
61035;BME280;46916;40.564;-7.958;2022-07-01T01:59:21;97464.88;;;17.14;59.48
61035;BME280;46916;40.564;-7.958;2022-07-01T02:01:22;97467.94;;;16.94;60.01
61035;BME280;46916;40.564;-7.958;2022-07-01T02:03:22;97466.28;;;16.77;60.29
61035;BME280;46916;40.564;-7.958;2022-07-01T02:05:24;97469.91;;;16.68;60.53
61035;BME280;46916;40.564;-7.958;2022-07-01T02:07:25;97465.94;;;16.64;60.71
61035;BME280;46916;40.564;-7.958;2022-07-01T02:09:25;97459.34;;;16.59;60.85
61035;BME280;46916;40.564;-7.958;2022-07-01T02:11:26;97460.84;;;16.54;61.05
61035;BME280;46916;40.564;-7.958;2022-07-01T02:13:27;97451.59;;;16.50;61.37
61035;BME280;46916;40.564;-7.958;2022-07-01T02:15:28;97451.41;;;16.51;61.27
61035;BME280;46916;40.564;-7.958;2022-07-01T02:17:28;97450.59;;;16.51;61.66
61035;BME280;46916;40.564;-7.958;2022-07-01T02:19:29;97451.59;;;16.50;61.62
61035;BME280;46916;40.564;-7.958;2022-07-01T02:21:30;97449.44;;;16.53;61.62
61035;BME280;46916;40.564;-7.958;2022-07-01T02:23:30;97447.78;;;16.52;61.64
61035;BME280;46916;40.564;-7.958;2022-07-01T02:25:31;97453.06;;;16.52;61.49
61035;BME280;46916;40.564;-7.958;2022-07-01T02:27:32;97451.25;;;16.53;61.61
61035;BME280;46916;40.564;-7.958;2022-07-01T02:29:32;97450.41;;;16.60;61.69
61035;BME280;46916;40.564;-7.958;2022-07-01T02:31:33;97452.06;;;16.70;61.19
61035;BME280;46916;40.564;-7.958;2022-07-01T02:33:34;97452.09;;;16.78;61.15
61035;BME280;46916;40.564;-7.958;2022-07-01T02:35:36;97449.75;;;16.83;60.82
61035;BME280;46916;40.564;-7.958;2022-07-01T02:37:37;97442.97;;;16.89;60.57
61035;BME280;46916;40.564;-7.958;2022-07-01T02:39:38;97446.44;;;16.89;60.66
61035;BME280;46916;40.564;-7.958;2022-07-01T02:41:38;97448.91;;;16.91;60.44
61035;BME280;46916;40.564;-7.958;2022-07-01T02:43:57;97448.91;;;16.91;60.35
61035;BME280;46916;40.564;-7.958;2022-07-01T02:45:58;97438.66;;;16.88;60.39
61035;BME280;46916;40.564;-7.958;2022-07-01T02:47:59;97440.81;;;16.92;60.57
61035;BME280;46916;40.564;-7.958;2022-07-01T02:50:09;97446.09;;;16.92;60.31
61035;BME280;46916;40.564;-7.958;2022-07-01T02:52:10;97430.22;;;16.92;60.23
61035;BME280;46916;40.564;-7.958;2022-07-01T02:54:11;97434.03;;;16.90;60.37
61035;BME280;46916;40.564;-7.958;2022-07-01T02:56:11;97436.03;;;16.88;60.13
61035;BME280;46916;40.564;-7.958;2022-07-01T02:58:12;97430.91;;;16.86;60.15
61035;BME280;46916;40.564;-7.958;2022-07-01T03:00:13;97426.97;;;16.82;60.37
61035;BME280;46916;40.564;-7.958;2022-07-01T03:02:14;97437.03;;;16.78;60.49
61035;BME280;46916;40.564;-7.958;2022-07-01T03:04:15;97436.69;;;16.73;60.50
61035;BME280;46916;40.564;-7.958;2022-07-01T03:06:15;97427.09;;;16.72;60.65
61035;BME280;46916;40.564;-7.958;2022-07-01T03:08:16;97440.50;;;16.71;60.67
61035;BME280;46916;40.564;-7.958;2022-07-01T03:10:17;97438.19;;;16.68;60.95
61035;BME280;46916;40.564;-7.958;2022-07-01T03:12:18;97438.50;;;16.65;61.05
61035;BME280;46916;40.564;-7.958;2022-07-01T03:14:25;97445.47;;;16.66;61.05
61035;BME280;46916;40.564;-7.958;2022-07-01T03:16:25;97443.16;;;16.63;60.87
61035;BME280;46916;40.564;-7.958;2022-07-01T03:18:26;97430.59;;;16.56;60.94
61035;BME280;46916;40.564;-7.958;2022-07-01T03:20:27;97434.06;;;16.57;60.96
61035;BME280;46916;40.564;-7.958;2022-07-01T03:22:29;97429.94;;;16.54;61.02
61035;BME280;46916;40.564;-7.958;2022-07-01T03:24:30;97440.84;;;16.51;61.17
61035;BME280;46916;40.564;-7.958;2022-07-01T03:26:31;97431.91;;;16.52;61.22
61035;BME280;46916;40.564;-7.958;2022-07-01T03:28:31;97424.97;;;16.51;61.23
61035;BME280;46916;40.564;-7.958;2022-07-01T03:30:34;97428.78;;;16.49;61.21
61035;BME280;46916;40.564;-7.958;2022-07-01T03:32:35;97430.59;;;16.48;61.43
61035;BME280;46916;40.564;-7.958;2022-07-01T03:34:41;97436.38;;;16.44;61.75
61035;BME280;46916;40.564;-7.958;2022-07-01T03:36:42;97428.31;;;16.37;61.85
61035;BME280;46916;40.564;-7.958;2022-07-01T03:38:43;97430.59;;;16.40;61.86
61035;BME280;46916;40.564;-7.958;2022-07-01T03:40:44;97441.84;;;16.42;61.78
61035;BME280;46916;40.564;-7.958;2022-07-01T03:42:45;97439.53;;;16.47;61.73
61035;BME280;46916;40.564;-7.958;2022-07-01T03:44:45;97436.25;;;16.45;61.71
61035;BME280;46916;40.564;-7.958;2022-07-01T03:46:46;97435.88;;;16.48;61.88
61035;BME280;46916;40.564;-7.958;2022-07-01T03:48:47;97429.13;;;16.46;61.73
61035;BME280;46916;40.564;-7.958;2022-07-01T03:50:47;97432.09;;;16.43;61.93
61035;BME280;46916;40.564;-7.958;2022-07-01T03:52:48;97427.13;;;16.40;62.25
61035;BME280;46916;40.564;-7.958;2022-07-01T03:54:49;97427.63;;;16.35;62.22
61035;BME280;46916;40.564;-7.958;2022-07-01T03:56:49;97430.28;;;16.35;62.54
61035;BME280;46916;40.564;-7.958;2022-07-01T03:58:50;97423.50;;;16.32;62.51
61035;BME280;46916;40.564;-7.958;2022-07-01T04:00:51;97424.81;;;16.37;62.63
61035;BME280;46916;40.564;-7.958;2022-07-01T04:02:51;97430.78;;;16.39;62.62
61035;BME280;46916;40.564;-7.958;2022-07-01T04:04:52;97425.31;;;16.40;62.48
61035;BME280;46916;40.564;-7.958;2022-07-01T04:06:53;97420.69;;;16.42;62.50
61035;BME280;46916;40.564;-7.958;2022-07-01T04:08:55;97415.41;;;16.42;62.37
61035;BME280;46916;40.564;-7.958;2022-07-01T04:10:56;97426.00;;;16.42;62.50
61035;BME280;46916;40.564;-7.958;2022-07-01T04:12:58;97426.00;;;16.42;62.51
61035;BME280;46916;40.564;-7.958;2022-07-01T04:14:58;97425.66;;;16.37;62.54
61035;BME280;46916;40.564;-7.958;2022-07-01T04:16:59;97418.06;;;16.34;62.92
61035;BME280;46916;40.564;-7.958;2022-07-01T04:19:00;97416.56;;;16.40;62.81
61035;BME280;46916;40.564;-7.958;2022-07-01T04:21:01;97426.31;;;16.39;62.96
61035;BME280;46916;40.564;-7.958;2022-07-01T04:23:20;97421.03;;;16.39;62.79
61035;BME280;46916;40.564;-7.958;2022-07-01T04:25:21;97413.91;;;16.40;62.82
61035;BME280;46916;40.564;-7.958;2022-07-01T04:27:21;97412.59;;;16.44;62.75
61035;BME280;46916;40.564;-7.958;2022-07-01T04:29:22;97410.44;;;16.47;62.43
61035;BME280;46916;40.564;-7.958;2022-07-01T04:31:23;97411.59;;;16.53;62.35
61035;BME280;46916;40.564;-7.958;2022-07-01T04:33:24;97418.03;;;16.58;62.20
61035;BME280;46916;40.564;-7.958;2022-07-01T04:35:24;97411.75;;;16.59;61.94
61035;BME280;46916;40.564;-7.958;2022-07-01T04:37:26;97415.06;;;16.62;62.10
61035;BME280;46916;40.564;-7.958;2022-07-01T04:39:26;97411.41;;;16.63;61.94
61035;BME280;46916;40.564;-7.958;2022-07-01T04:41:27;97416.38;;;16.66;61.86
61035;BME280;46916;40.564;-7.958;2022-07-01T04:43:46;97416.03;;;16.69;61.62
61035;BME280;46916;40.564;-7.958;2022-07-01T04:45:47;97417.19;;;16.66;61.81
61035;BME280;46916;40.564;-7.958;2022-07-01T04:47:48;97417.53;;;16.63;61.84
61035;BME280;46916;40.564;-7.958;2022-07-01T04:49:49;97424.63;;;16.63;61.80
61035;BME280;46916;40.564;-7.958;2022-07-01T04:51:49;97421.00;;;16.55;61.75
61035;BME280;46916;40.564;-7.958;2022-07-01T04:53:50;97423.34;;;16.50;62.00
61035;BME280;46916;40.564;-7.958;2022-07-01T04:55:51;97419.53;;;16.37;62.16
61035;BME280;46916;40.564;-7.958;2022-07-01T04:57:52;97420.22;;;16.22;62.32
61035;BME280;46916;40.564;-7.958;2022-07-01T04:59:52;97424.16;;;16.10;62.33
61035;BME280;46916;40.564;-7.958;2022-07-01T05:01:53;97425.66;;;15.96;62.67
61035;BME280;46916;40.564;-7.958;2022-07-01T05:03:55;97426.28;;;15.82;62.64
61035;BME280;46916;40.564;-7.958;2022-07-01T05:05:56;97422.97;;;15.72;63.01
61035;BME280;46916;40.564;-7.958;2022-07-01T05:07:56;97420.59;;;15.60;63.06
61035;BME280;46916;40.564;-7.958;2022-07-01T05:09:57;97421.91;;;15.56;62.75
61035;BME280;46916;40.564;-7.958;2022-07-01T05:11:59;97425.88;;;15.52;62.84
61035;BME280;46916;40.564;-7.958;2022-07-01T05:14:00;97430.63;;;15.49;63.08
61035;BME280;46916;40.564;-7.958;2022-07-01T05:16:01;97422.72;;;15.49;63.04
61035;BME280;46916;40.564;-7.958;2022-07-01T05:18:02;97427.19;;;15.48;62.92
61035;BME280;46916;40.564;-7.958;2022-07-01T05:20:21;97430.16;;;15.53;62.92
61035;BME280;46916;40.564;-7.958;2022-07-01T05:22:40;97418.47;;;15.56;62.54
61035;BME280;46916;40.564;-7.958;2022-07-01T05:24:41;97436.25;;;15.54;62.51
61035;BME280;46916;40.564;-7.958;2022-07-01T05:26:42;97430.31;;;15.52;62.59
61035;BME280;46916;40.564;-7.958;2022-07-01T05:28:46;97425.69;;;15.54;62.12
61035;BME280;46916;40.564;-7.958;2022-07-01T05:30:47;97433.94;;;15.59;62.26
61035;BME280;46916;40.564;-7.958;2022-07-01T05:32:47;97432.03;;;15.69;61.91
61035;BME280;46916;40.564;-7.958;2022-07-01T05:34:48;97433.19;;;15.75;61.60
61035;BME280;46916;40.564;-7.958;2022-07-01T05:36:48;97434.53;;;15.79;61.49
61035;BME280;46916;40.564;-7.958;2022-07-01T05:38:49;97441.50;;;15.88;61.26
61035;BME280;46916;40.564;-7.958;2022-07-01T05:40:50;97432.59;;;15.97;61.02
61035;BME280;46916;40.564;-7.958;2022-07-01T05:42:52;97443.16;;;16.05;60.45
61035;BME280;46916;40.564;-7.958;2022-07-01T05:44:53;97445.13;;;16.12;60.17
61035;BME280;46916;40.564;-7.958;2022-07-01T05:46:54;97442.84;;;16.17;60.12
61035;BME280;46916;40.564;-7.958;2022-07-01T05:48:54;97442.84;;;16.25;59.65
61035;BME280;46916;40.564;-7.958;2022-07-01T05:50:55;97442.34;;;16.29;59.45
61035;BME280;46916;40.564;-7.958;2022-07-01T05:52:56;97440.69;;;16.28;59.48
61035;BME280;46916;40.564;-7.958;2022-07-01T05:54:56;97443.19;;;16.30;59.43
61035;BME280;46916;40.564;-7.958;2022-07-01T05:56:57;97449.94;;;16.32;59.43
61035;BME280;46916;40.564;-7.958;2022-07-01T05:58:58;97454.75;;;16.37;59.58
61035;BME280;46916;40.564;-7.958;2022-07-01T06:00:58;97454.75;;;16.37;59.42
61035;BME280;46916;40.564;-7.958;2022-07-01T06:02:59;97462.31;;;16.32;59.54
61035;BME280;46916;40.564;-7.958;2022-07-01T06:05:00;97459.53;;;16.25;59.45
61035;BME280;46916;40.564;-7.958;2022-07-01T06:07:02;97456.19;;;16.15;59.76
61035;BME280;46916;40.564;-7.958;2022-07-01T06:09:03;97463.47;;;16.13;59.88
61035;BME280;46916;40.564;-7.958;2022-07-01T06:11:03;97462.66;;;16.13;59.36
61035;BME280;46916;40.564;-7.958;2022-07-01T06:13:04;97467.09;;;16.12;59.76
61035;BME280;46916;40.564;-7.958;2022-07-01T06:15:07;97467.28;;;16.19;59.35
61035;BME280;46916;40.564;-7.958;2022-07-01T06:17:08;97463.81;;;16.26;59.31
61035;BME280;46916;40.564;-7.958;2022-07-01T06:19:09;97457.22;;;16.30;58.97
61035;BME280;46916;40.564;-7.958;2022-07-01T06:21:10;97455.88;;;16.34;58.94
61035;BME280;46916;40.564;-7.958;2022-07-01T06:23:11;97463.00;;;16.34;58.68
61035;BME280;46916;40.564;-7.958;2022-07-01T06:25:11;97464.31;;;16.38;58.63
61035;BME280;46916;40.564;-7.958;2022-07-01T06:27:12;97446.97;;;16.44;58.52
61035;BME280;46916;40.564;-7.958;2022-07-01T06:29:13;97455.06;;;16.50;58.24
61035;BME280;46916;40.564;-7.958;2022-07-01T06:31:14;97457.19;;;16.55;58.10
61035;BME280;46916;40.564;-7.958;2022-07-01T06:33:14;97453.56;;;16.56;58.26
61035;BME280;46916;40.564;-7.958;2022-07-01T06:35:15;97450.91;;;16.56;58.21
61035;BME280;46916;40.564;-7.958;2022-07-01T06:37:16;97454.53;;;16.63;58.33
61035;BME280;46916;40.564;-7.958;2022-07-01T06:39:17;97452.72;;;16.72;58.35
61035;BME280;46916;40.564;-7.958;2022-07-01T06:41:18;97448.44;;;16.79;58.31
61035;BME280;46916;40.564;-7.958;2022-07-01T06:43:27;97450.25;;;16.87;58.31
61035;BME280;46916;40.564;-7.958;2022-07-01T06:45:28;97453.03;;;16.85;58.07
61035;BME280;46916;40.564;-7.958;2022-07-01T06:47:29;97452.72;;;16.88;58.13
61035;BME280;46916;40.564;-7.958;2022-07-01T06:49:29;97456.69;;;16.92;58.18
61035;BME280;46916;40.564;-7.958;2022-07-01T06:51:30;97458.47;;;17.00;57.99
61035;BME280;46916;40.564;-7.958;2022-07-01T06:53:31;97458.97;;;17.03;58.03
61035;BME280;46916;40.564;-7.958;2022-07-01T06:55:31;97454.66;;;17.11;57.87
61035;BME280;46916;40.564;-7.958;2022-07-01T06:57:32;97452.97;;;17.18;57.69
61035;BME280;46916;40.564;-7.958;2022-07-01T06:59:33;97453.75;;;17.26;57.64
61035;BME280;46916;40.564;-7.958;2022-07-01T07:01:34;97458.88;;;17.28;57.57
61035;BME280;46916;40.564;-7.958;2022-07-01T07:03:35;97465.19;;;17.27;57.30
61035;BME280;46916;40.564;-7.958;2022-07-01T07:05:35;97464.19;;;17.28;57.08
61035;BME280;46916;40.564;-7.958;2022-07-01T07:07:36;97459.72;;;17.28;57.13
61035;BME280;46916;40.564;-7.958;2022-07-01T07:09:37;97464.66;;;17.31;57.00
61035;BME280;46916;40.564;-7.958;2022-07-01T07:11:38;97468.09;;;17.40;56.77
61035;BME280;46916;40.564;-7.958;2022-07-01T07:13:38;97466.25;;;17.49;56.49
61035;BME280;46916;40.564;-7.958;2022-07-01T07:15:39;97469.69;;;17.57;56.55
61035;BME280;46916;40.564;-7.958;2022-07-01T07:17:42;97468.16;;;17.63;56.47
61035;BME280;46916;40.564;-7.958;2022-07-01T07:19:43;97465.47;;;17.71;56.54
61035;BME280;46916;40.564;-7.958;2022-07-01T07:21:43;97460.34;;;17.78;56.58
61035;BME280;46916;40.564;-7.958;2022-07-01T07:23:44;97454.69;;;17.81;54.97
61035;BME280;46916;40.564;-7.958;2022-07-01T07:25:45;97464.56;;;17.87;54.44
61035;BME280;46916;40.564;-7.958;2022-07-01T07:27:46;97463.28;;;17.83;54.04
61035;BME280;46916;40.564;-7.958;2022-07-01T07:29:47;97469.25;;;17.85;54.42
61035;BME280;46916;40.564;-7.958;2022-07-01T07:31:47;97468.94;;;17.80;54.41
61035;BME280;46916;40.564;-7.958;2022-07-01T07:33:48;97463.66;;;17.72;53.71
61035;BME280;46916;40.564;-7.958;2022-07-01T07:35:48;97466.53;;;17.54;54.24
61035;BME280;46916;40.564;-7.958;2022-07-01T07:37:49;97470.25;;;17.45;54.89
61035;BME280;46916;40.564;-7.958;2022-07-01T07:39:50;97467.09;;;17.41;55.15
61035;BME280;46916;40.564;-7.958;2022-07-01T07:41:51;97470.56;;;17.42;55.26
61035;BME280;46916;40.564;-7.958;2022-07-01T07:43:51;97466.78;;;17.44;55.26
61035;BME280;46916;40.564;-7.958;2022-07-01T07:45:52;97462.13;;;17.46;55.14
61035;BME280;46916;40.564;-7.958;2022-07-01T07:47:52;97468.56;;;17.52;54.81
61035;BME280;46916;40.564;-7.958;2022-07-01T07:49:55;97467.56;;;17.53;55.20
61035;BME280;46916;40.564;-7.958;2022-07-01T07:51:55;97465.88;;;17.60;54.52
61035;BME280;46916;40.564;-7.958;2022-07-01T07:53:56;97465.50;;;17.63;54.31
61035;BME280;46916;40.564;-7.958;2022-07-01T07:55:57;97475.59;;;17.68;54.16
61035;BME280;46916;40.564;-7.958;2022-07-01T07:57:57;97469.81;;;17.64;54.13
61035;BME280;46916;40.564;-7.958;2022-07-01T07:59:58;97479.22;;;17.67;54.32
61035;BME280;46916;40.564;-7.958;2022-07-01T08:01:59;97469.13;;;17.70;54.17
61035;BME280;46916;40.564;-7.958;2022-07-01T08:03:59;97478.72;;;17.71;54.14
61035;BME280;46916;40.564;-7.958;2022-07-01T08:06:00;97482.53;;;17.77;54.10
61035;BME280;46916;40.564;-7.958;2022-07-01T08:08:01;97479.53;;;17.80;53.71
61035;BME280;46916;40.564;-7.958;2022-07-01T08:10:02;97480.00;;;17.83;53.88
61035;BME280;46916;40.564;-7.958;2022-07-01T08:12:03;97482.81;;;17.82;53.83
61035;BME280;46916;40.564;-7.958;2022-07-01T08:14:04;97484.94;;;17.87;53.99
61035;BME280;46916;40.564;-7.958;2022-07-01T08:16:05;97478.78;;;17.94;54.17
61035;BME280;46916;40.564;-7.958;2022-07-01T08:18:06;97484.84;;;18.03;53.60
61035;BME280;46916;40.564;-7.958;2022-07-01T08:20:07;97485.19;;;18.00;53.44
61035;BME280;46916;40.564;-7.958;2022-07-01T08:22:08;97487.69;;;18.01;53.41
61035;BME280;46916;40.564;-7.958;2022-07-01T08:24:09;97486.50;;;18.04;53.62
61035;BME280;46916;40.564;-7.958;2022-07-01T08:26:09;97471.75;;;18.10;53.72
61035;BME280;46916;40.564;-7.958;2022-07-01T08:28:13;97474.97;;;18.20;53.85
61035;BME280;46916;40.564;-7.958;2022-07-01T08:30:15;97473.59;;;18.24;53.18
61035;BME280;46916;40.564;-7.958;2022-07-01T08:32:15;97470.63;;;18.27;53.30
61035;BME280;46916;40.564;-7.958;2022-07-01T08:34:16;97471.56;;;18.34;53.25
61035;BME280;46916;40.564;-7.958;2022-07-01T08:36:17;97464.72;;;18.40;53.09
61035;BME280;46916;40.564;-7.958;2022-07-01T08:38:18;97458.88;;;18.44;53.10
61035;BME280;46916;40.564;-7.958;2022-07-01T08:40:18;97461.75;;;18.58;52.28
61035;BME280;46916;40.564;-7.958;2022-07-01T08:42:19;97469.53;;;18.59;51.95
61035;BME280;46916;40.564;-7.958;2022-07-01T08:44:20;97457.09;;;18.60;51.68
61035;BME280;46916;40.564;-7.958;2022-07-01T08:46:22;97456.06;;;18.61;51.87
61035;BME280;46916;40.564;-7.958;2022-07-01T08:48:23;97461.50;;;18.67;51.57
61035;BME280;46916;40.564;-7.958;2022-07-01T08:50:24;97461.09;;;18.78;50.94
61035;BME280;46916;40.564;-7.958;2022-07-01T08:52:26;97459.06;;;18.80;50.29
61035;BME280;46916;40.564;-7.958;2022-07-01T08:54:27;97455.72;;;18.87;50.99
61035;BME280;46916;40.564;-7.958;2022-07-01T08:56:28;97461.56;;;18.97;50.65
61035;BME280;46916;40.564;-7.958;2022-07-01T08:58:41;97458.47;;;19.08;49.79
61035;BME280;46916;40.564;-7.958;2022-07-01T09:00:41;97457.28;;;19.11;49.43
61035;BME280;46916;40.564;-7.958;2022-07-01T09:02:54;97464.69;;;19.15;50.00
61035;BME280;46916;40.564;-7.958;2022-07-01T09:05:05;97457.19;;;19.19;49.68
61035;BME280;46916;40.564;-7.958;2022-07-01T09:07:08;97452.97;;;19.24;49.51
61035;BME280;46916;40.564;-7.958;2022-07-01T09:09:13;97454.50;;;19.34;49.36
61035;BME280;46916;40.564;-7.958;2022-07-01T09:11:22;97456.06;;;19.43;49.05
61035;BME280;46916;40.564;-7.958;2022-07-01T09:13:23;97452.88;;;19.47;48.73
61035;BME280;46916;40.564;-7.958;2022-07-01T09:15:24;97450.09;;;19.55;48.48
61035;BME280;46916;40.564;-7.958;2022-07-01T09:17:26;97448.06;;;19.58;48.36
61035;BME280;46916;40.564;-7.958;2022-07-01T09:19:29;97459.00;;;19.63;48.13
61035;BME280;46916;40.564;-7.958;2022-07-01T09:21:30;97447.81;;;19.67;47.97
61035;BME280;46916;40.564;-7.958;2022-07-01T09:23:31;97452.38;;;19.73;46.67
61035;BME280;46916;40.564;-7.958;2022-07-01T09:25:53;97450.09;;;19.70;47.12
61035;BME280;46916;40.564;-7.958;2022-07-01T09:28:08;97447.53;;;19.77;47.69
61035;BME280;46916;40.564;-7.958;2022-07-01T09:30:09;97448.44;;;19.84;47.27
61035;BME280;46916;40.564;-7.958;2022-07-01T09:32:12;97448.94;;;19.94;46.58
61035;BME280;46916;40.564;-7.958;2022-07-01T09:34:14;97437.84;;;19.91;46.94
61035;BME280;46916;40.564;-7.958;2022-07-01T09:36:15;97444.25;;;19.96;46.45
61035;BME280;46916;40.564;-7.958;2022-07-01T09:38:18;97440.09;;;20.09;46.26
61035;BME280;46916;40.564;-7.958;2022-07-01T09:40:19;97444.25;;;20.18;45.55
61035;BME280;46916;40.564;-7.958;2022-07-01T09:42:22;97441.78;;;20.16;45.96
61035;BME280;46916;40.564;-7.958;2022-07-01T09:44:23;97435.63;;;20.16;46.03
61035;BME280;46916;40.564;-7.958;2022-07-01T09:46:24;97437.72;;;20.20;46.10
61035;BME280;46916;40.564;-7.958;2022-07-01T09:48:45;97438.44;;;20.29;46.38
61035;BME280;46916;40.564;-7.958;2022-07-01T09:50:46;97438.47;;;20.36;45.77
61035;BME280;46916;40.564;-7.958;2022-07-01T09:52:46;97435.81;;;20.36;45.64
61035;BME280;46916;40.564;-7.958;2022-07-01T09:54:48;97430.34;;;20.37;45.85
61035;BME280;46916;40.564;-7.958;2022-07-01T09:56:49;97433.41;;;20.41;46.08
61035;BME280;46916;40.564;-7.958;2022-07-01T09:58:50;97435.31;;;20.47;45.95
61035;BME280;46916;40.564;-7.958;2022-07-01T10:00:54;97433.75;;;20.52;45.50
61035;BME280;46916;40.564;-7.958;2022-07-01T10:02:57;97434.19;;;20.56;45.30
61035;BME280;46916;40.564;-7.958;2022-07-01T10:05:08;97436.09;;;20.62;45.69
61035;BME280;46916;40.564;-7.958;2022-07-01T10:11:52;97420.16;;;20.69;45.30
61035;BME280;46916;40.564;-7.958;2022-07-01T10:13:58;97426.50;;;20.68;45.57
61035;BME280;46916;40.564;-7.958;2022-07-01T10:16:01;97427.97;;;20.70;45.64
61035;BME280;46916;40.564;-7.958;2022-07-01T10:18:03;97423.16;;;20.87;45.00
61035;BME280;46916;40.564;-7.958;2022-07-01T10:22:27;97427.16;;;21.05;44.38
61035;BME280;46916;40.564;-7.958;2022-07-01T10:24:28;97424.72;;;21.10;44.50
61035;BME280;46916;40.564;-7.958;2022-07-01T10:26:29;97428.25;;;21.17;44.10
61035;BME280;46916;40.564;-7.958;2022-07-01T10:31:05;97411.44;;;21.16;43.02
61035;BME280;46916;40.564;-7.958;2022-07-01T10:33:06;97418.84;;;21.21;43.19
61035;BME280;46916;40.564;-7.958;2022-07-01T10:35:07;97412.72;;;21.27;43.65
61035;BME280;46916;40.564;-7.958;2022-07-01T10:37:10;97413.63;;;21.41;42.86
61035;BME280;46916;40.564;-7.958;2022-07-01T10:39:13;97411.56;;;21.43;42.91
61035;BME280;46916;40.564;-7.958;2022-07-01T10:41:27;97405.47;;;21.49;42.92
61035;BME280;46916;40.564;-7.958;2022-07-01T10:43:32;97412.47;;;21.57;42.74
61035;BME280;46916;40.564;-7.958;2022-07-01T10:45:44;97413.72;;;21.67;42.26